Time;durP1;ratioP1;P1;durP2;ratioP2;P2;SDS_P1;SDS_P2;PMS_P1;PMS_P2;Temp;Humidity;BMP_temperature;BMP_pressure;BME280_temperature;BME280_humidity;BME280_pressure;Samples;Min_cycle;Max_cycle;Signal;HPM_P1;HPM_P2
2022/02/07 00:00:09;;;;;;;0.15;0.15;;;;;;;4.62;99.24;97819.28;5083052;28;20024;-67
2022/02/07 00:03:02;;;;;;;0.60;0.30;;;;;;;4.64;99.91;97825.31;5082379;28;20020;-67
2022/02/07 00:05:26;;;;;;;0.20;0.20;;;;;;;4.63;99.92;97854.88;5081788;28;20032;-67
2022/02/07 00:07:51;;;;;;;0.93;0.32;;;;;;;4.69;99.80;97845.28;5083043;28;20066;-67
2022/02/07 00:10:17;;;;;;;7.97;0.50;;;;;;;4.65;99.40;97863.56;5082245;28;20021;-67
2022/02/07 00:12:45;;;;;;;0.95;0.30;;;;;;;4.66;99.31;97860.94;5082214;28;20065;-67
2022/02/07 00:15:12;;;;;;;1.45;0.57;;;;;;;4.68;99.50;97873.97;5081963;28;20040;-67
2022/02/07 00:17:37;;;;;;;0.45;0.15;;;;;;;4.65;99.05;97879.19;5085619;28;20032;-67
2022/02/07 00:20:08;;;;;;;0.25;0.20;;;;;;;4.63;98.67;97879.22;5081427;28;20051;-67
2022/02/07 00:22:34;;;;;;;3.65;0.32;;;;;;;4.58;98.75;97887.94;5086188;28;20014;-67
2022/02/07 00:25:00;;;;;;;0.47;0.22;;;;;;;4.61;98.46;97908.75;5085636;28;20350;-67
2022/02/07 00:27:25;;;;;;;0.30;0.30;;;;;;;4.62;97.71;97908.72;5085615;28;20020;-67
2022/02/07 00:29:51;;;;;;;0.70;0.28;;;;;;;4.65;98.43;97913.91;5085535;28;20086;-67
2022/02/07 00:32:16;;;;;;;2.38;0.95;;;;;;;4.67;97.36;97920.00;5086226;28;20016;-67
2022/02/07 00:34:41;;;;;;;1.13;0.45;;;;;;;4.66;96.89;97912.19;5085614;28;20020;-67
2022/02/07 00:37:07;;;;;;;1.75;0.63;;;;;;;4.71;96.04;97915.63;5085443;28;20043;-67
2022/02/07 00:39:42;;;;;;;1.25;0.45;;;;;;;4.66;96.34;97913.06;5085683;28;20070;-67
2022/02/07 00:42:10;;;;;;;3.80;0.40;;;;;;;4.63;96.08;97938.28;5085241;28;20346;-67
2022/02/07 00:44:36;;;;;;;0.47;0.30;;;;;;;4.58;96.41;97942.66;5085210;28;20088;-67
2022/02/07 00:47:08;;;;;;;4.07;0.45;;;;;;;4.52;96.43;97945.31;5085793;28;20016;-67
2022/02/07 00:49:34;;;;;;;1.27;0.63;;;;;;;4.49;96.88;97951.38;5085354;28;20016;-67
2022/02/07 00:51:59;;;;;;;2.38;0.40;;;;;;;4.40;96.87;97957.53;5085235;28;20027;-67
2022/02/07 00:54:25;;;;;;;2.10;0.45;;;;;;;4.44;96.87;97953.16;5084985;28;20017;-67
2022/02/07 00:56:51;;;;;;;4.40;0.70;;;;;;;4.50;95.79;97953.97;5085133;28;20027;-67
2022/02/07 00:59:17;;;;;;;1.55;0.40;;;;;;;4.52;95.08;97955.72;5085307;28;20036;-67
2022/02/07 01:01:43;;;;;;;1.10;0.38;;;;;;;4.56;95.19;97973.06;5085084;28;20023;-67
2022/02/07 01:04:08;;;;;;;4.18;0.40;;;;;;;4.56;95.69;97983.50;5085154;28;20012;-67
2022/02/07 01:06:34;;;;;;;3.17;0.50;;;;;;;4.55;94.59;97986.97;5085401;28;20316;-67
2022/02/07 01:20:09;;;;;;;0.68;0.57;;;;;;;4.33;93.51;98036.59;5081461;28;20359;-67
2022/02/07 01:47:42;;;;;;;6.78;0.90;;;;;;;3.95;93.08;98129.59;5081203;28;20031;-67
2022/02/07 01:53:12;;;;;;;1.05;0.40;;;;;;;3.80;93.98;98160.81;5084042;28;20099;-67
2022/02/07 01:55:40;;;;;;;1.95;0.68;;;;;;;3.87;93.95;98172.13;5083306;28;20025;-67
2022/02/07 01:58:07;;;;;;;1.55;0.47;;;;;;;3.85;94.95;98174.72;5084385;28;20016;-67
2022/02/07 02:00:33;;;;;;;2.78;0.50;;;;;;;3.90;94.73;98187.72;5084019;28;20012;-67
2022/02/07 02:02:59;;;;;;;0.82;0.60;;;;;;;3.97;95.08;98185.13;5084065;28;20020;-67
2022/02/07 02:05:25;;;;;;;0.70;0.43;;;;;;;4.03;95.17;98189.47;5077170;28;20362;-67
2022/02/07 02:07:51;;;;;;;6.47;0.55;;;;;;;4.05;95.54;98199.00;5084131;28;20052;-67
2022/02/07 02:10:17;;;;;;;2.10;0.68;;;;;;;4.08;95.17;98209.41;5083802;28;20020;-67
2022/02/07 02:12:55;;;;;;;10.15;1.20;;;;;;;4.13;94.59;98212.88;5084016;28;20020;-67
2022/02/07 02:47:19;;;;;;;0.88;0.43;;;;;;;3.61;99.53;98356.84;5082950;28;20062;-67
2022/02/07 02:49:49;;;;;;;1.25;0.57;;;;;;;3.65;98.00;98363.81;5080534;28;20020;-67
2022/02/07 02:52:14;;;;;;;2.53;0.55;;;;;;;3.67;97.58;98393.31;5083288;28;20023;-67
2022/02/07 02:54:40;;;;;;;2.38;0.98;;;;;;;3.65;97.97;98426.28;5083185;28;20020;-67
2022/02/07 02:57:05;;;;;;;0.95;0.73;;;;;;;3.44;97.98;98446.97;5082993;28;20027;-67
2022/02/07 02:59:31;;;;;;;0.35;0.28;;;;;;;2.73;99.56;98443.03;5083151;28;20316;-67
2022/02/07 03:01:56;;;;;;;2.50;0.47;;;;;;;2.50;100.00;98456.66;5083244;28;20028;-67
2022/02/07 03:04:22;;;;;;;1.30;0.30;;;;;;;2.46;100.00;98468.75;5082944;28;20308;-67
2022/02/07 03:06:49;;;;;;;0.32;0.30;;;;;;;2.38;100.00;98492.91;5082888;28;20013;-67
2022/02/07 03:09:16;;;;;;;1.42;0.40;;;;;;;2.44;100.00;98493.84;5079842;28;20324;-67
2022/02/07 03:11:42;;;;;;;3.30;0.32;;;;;;;2.47;100.00;98490.41;5082952;28;20017;-67
2022/02/07 03:14:08;;;;;;;0.30;0.30;;;;;;;2.44;100.00;98493.84;5082945;28;20314;-67
2022/02/07 03:16:37;;;;;;;1.70;0.50;;;;;;;2.52;100.00;98484.38;5082527;28;20016;-67
2022/02/07 03:19:16;;;;;;;0.93;0.32;;;;;;;2.56;100.00;98499.13;5083120;28;20024;-67
2022/02/07 03:21:43;;;;;;;1.58;0.40;;;;;;;2.59;100.00;98517.34;5080799;28;20020;-67
2022/02/07 03:24:09;;;;;;;1.33;0.50;;;;;;;2.58;100.00;98526.00;5082489;28;20024;-67
2022/02/07 03:26:38;;;;;;;0.57;0.40;;;;;;;2.58;100.00;98531.22;5078761;28;20062;-67
2022/02/07 03:29:04;;;;;;;2.67;0.40;;;;;;;2.56;100.00;98535.50;5083166;28;20029;-67
2022/02/07 03:31:30;;;;;;;8.10;0.47;;;;;;;2.56;100.00;98543.31;5082742;28;20438;-67
2022/02/07 03:33:55;;;;;;;0.82;0.60;;;;;;;2.56;100.00;98558.88;5082469;28;20020;-67
2022/02/07 03:36:21;;;;;;;4.25;0.52;;;;;;;2.53;100.00;98574.44;5082574;28;20025;-67
2022/02/07 03:38:47;;;;;;;1.73;0.45;;;;;;;2.50;100.00;98573.56;5082460;28;20220;-67
2022/02/07 03:41:12;;;;;;;0.68;0.52;;;;;;;2.51;100.00;98591.75;5083088;28;20028;-67
2022/02/07 03:43:38;;;;;;;0.40;0.40;;;;;;;2.52;100.00;98598.69;5082262;28;20216;-67
2022/02/07 03:46:04;;;;;;;3.40;0.43;;;;;;;2.51;100.00;98602.16;5081932;28;20324;-67
2022/02/07 03:48:31;;;;;;;1.83;0.30;;;;;;;2.49;100.00;98608.16;5082773;28;20020;-67
2022/02/07 03:50:56;;;;;;;0.98;0.20;;;;;;;2.38;100.00;98610.66;5083585;28;20083;-67
2022/02/07 03:53:22;;;;;;;1.55;0.70;;;;;;;2.42;100.00;98621.94;5086513;28;20059;-67
2022/02/07 03:55:48;;;;;;;1.13;0.80;;;;;;;2.47;99.37;98646.25;5086334;28;20024;-67
2022/02/07 03:58:15;;;;;;;0.98;0.50;;;;;;;2.47;99.27;98635.84;5086057;28;20024;-67
2022/02/07 04:00:41;;;;;;;0.60;0.40;;;;;;;2.41;99.20;98652.25;5086163;28;20024;-67
2022/02/07 04:03:09;;;;;;;11.35;0.60;;;;;;;2.42;99.23;98648.78;5086254;28;20048;-67
2022/02/07 04:05:46;;;;;;;3.15;0.60;;;;;;;2.40;99.21;98650.47;5082508;28;20086;-67
2022/02/07 04:08:13;;;;;;;4.10;0.60;;;;;;;2.38;98.85;98664.31;5077797;28;20052;-67
2022/02/07 04:11:03;;;;;;;10.45;1.45;;;;;;;2.31;98.92;98665.94;5086225;28;20024;-67
2022/02/07 04:13:30;;;;;;;3.03;0.57;;;;;;;2.25;99.22;98676.25;5086033;28;20028;-67
2022/02/07 04:15:57;;;;;;;0.30;0.30;;;;;;;2.23;99.02;98672.75;5085497;28;20033;-67
2022/02/07 04:18:27;;;;;;;6.95;0.70;;;;;;;2.21;98.96;98687.44;5085982;28;20063;-67
2022/02/07 04:20:52;;;;;;;1.88;0.20;;;;;;;2.16;99.24;98686.50;5085430;28;20347;-67
2022/02/07 04:23:18;;;;;;;4.60;0.40;;;;;;;2.11;99.69;98688.16;5085874;28;20020;-67
2022/02/07 04:25:43;;;;;;;1.55;0.82;;;;;;;2.12;99.66;98700.31;5085665;28;20185;-67
2022/02/07 04:28:09;;;;;;;14.13;0.95;;;;;;;2.10;99.89;98710.66;5085738;28;20020;-67
2022/02/07 04:30:34;;;;;;;2.78;0.57;;;;;;;2.16;99.45;98722.88;5085820;28;20044;-67
2022/02/07 04:33:00;;;;;;;6.50;1.05;;;;;;;2.09;99.28;98721.03;5085650;28;20048;-67
2022/02/07 04:35:25;;;;;;;0.70;0.32;;;;;;;2.05;99.27;98733.06;5085648;28;20024;-67
2022/02/07 04:37:51;;;;;;;3.42;0.35;;;;;;;2.06;99.46;98746.94;5084798;28;20319;-67
2022/02/07 04:40:16;;;;;;;0.80;0.35;;;;;;;1.98;99.67;98752.00;5085025;28;20249;-67
2022/02/07 04:42:42;;;;;;;3.45;0.80;;;;;;;1.99;99.63;98760.66;5085252;28;20328;-67
2022/02/07 04:50:30;;;;;;;5.97;1.05;;;;;;;2.02;99.04;98787.53;5084508;28;20016;-67
2022/02/07 04:55:40;;;;;;;5.15;0.55;;;;;;;1.97;98.94;98804.75;5084886;28;20012;-67
2022/02/07 05:01:05;;;;;;;8.15;0.90;;;;;;;1.80;99.84;98826.94;5084656;28;19991;-67
2022/02/07 05:03:35;;;;;;;1.85;0.60;;;;;;;1.69;99.87;98837.97;5081232;28;20352;-67
2022/02/07 05:14:13;;;;;;;3.50;0.70;;;;;;;1.59;100.00;98874.97;5065909;28;20024;-67
2022/02/07 05:16:40;;;;;;;1.27;0.57;;;;;;;1.60;100.00;98876.72;5065866;28;20024;-67
2022/02/07 05:19:06;;;;;;;0.75;0.43;;;;;;;1.57;100.00;98879.25;5065843;28;20025;-67
2022/02/07 05:21:31;;;;;;;0.35;0.28;;;;;;;1.44;100.00;98888.50;5065765;28;20025;-67
2022/02/07 05:23:57;;;;;;;0.82;0.63;;;;;;;1.49;100.00;98891.19;5065716;28;20021;-67
2022/02/07 05:26:23;;;;;;;5.57;1.00;;;;;;;1.46;100.00;98899.78;5065703;28;20213;-67
2022/02/07 05:28:49;;;;;;;1.83;0.70;;;;;;;1.46;100.00;98906.69;5065647;28;20028;-67
2022/02/07 05:31:14;;;;;;;1.15;0.38;;;;;;;1.53;100.00;98914.63;5065474;28;20045;-67
2022/02/07 05:33:40;;;;;;;10.25;1.00;;;;;;;1.48;100.00;98917.97;5065409;28;20067;-67
2022/02/07 05:36:10;;;;;;;2.55;0.98;;;;;;;1.56;100.00;98925.06;5065458;28;20062;-67
2022/02/07 05:38:41;;;;;;;6.32;1.08;;;;;;;1.57;100.00;98925.94;5065712;28;20322;-67
2022/02/07 05:41:08;;;;;;;1.98;0.52;;;;;;;1.58;100.00;98932.88;5065708;28;20182;-67
2022/02/07 05:43:37;;;;;;;1.23;0.82;;;;;;;1.49;100.00;98932.69;5065401;28;20024;-67
2022/02/07 05:46:02;;;;;;;1.42;0.60;;;;;;;1.42;100.00;98938.56;5065365;28;20225;-67
2022/02/07 05:48:28;;;;;;;2.85;0.82;;;;;;;1.39;100.00;98935.94;5065275;28;20040;-67
2022/02/07 05:50:53;;;;;;;5.30;0.32;;;;;;;1.31;100.00;98945.25;5065203;28;20051;-67
2022/02/07 05:53:19;;;;;;;3.38;0.85;;;;;;;1.35;100.00;98954.84;5065088;28;20025;-67
2022/02/07 05:55:44;;;;;;;3.97;0.77;;;;;;;1.48;100.00;98964.63;5065371;28;20021;-67
2022/02/07 05:58:10;;;;;;;3.15;1.17;;;;;;;1.57;100.00;98967.44;5065093;28;20336;-67
2022/02/07 06:00:37;;;;;;;3.15;1.25;;;;;;;1.62;100.00;98965.81;5065065;28;20048;-67
2022/02/07 06:03:03;;;;;;;3.15;0.82;;;;;;;1.68;100.00;98971.16;5065014;28;20351;-67
2022/02/07 06:05:29;;;;;;;4.30;2.45;;;;;;;1.72;100.00;98980.72;5064963;28;20491;-67
2022/02/07 06:07:54;;;;;;;0.77;0.73;;;;;;;1.70;100.00;98987.59;5064921;28;20390;-67
2022/02/07 06:10:20;;;;;;;2.67;1.02;;;;;;;1.64;100.00;98996.13;5064846;28;20032;-67
2022/02/07 06:12:47;;;;;;;10.50;1.63;;;;;;;1.61;100.00;99009.03;5064781;28;20078;-67
2022/02/07 06:15:13;;;;;;;7.72;1.23;;;;;;;1.58;100.00;99005.53;5064132;28;20025;-67
2022/02/07 06:17:40;;;;;;;1.73;1.00;;;;;;;1.56;100.00;99012.38;5064696;28;20071;-67
2022/02/07 06:20:06;;;;;;;3.90;0.98;;;;;;;1.60;100.00;99019.38;5064748;28;20031;-67
2022/02/07 06:22:32;;;;;;;3.15;0.88;;;;;;;1.60;100.00;99019.38;5064561;28;20027;-67
2022/02/07 06:24:57;;;;;;;17.42;1.25;;;;;;;1.58;100.00;99031.47;5064557;28;20021;-67
2022/02/07 06:27:23;;;;;;;10.05;1.45;;;;;;;1.62;100.00;99039.31;5064567;28;20025;-67
2022/02/07 06:29:49;;;;;;;4.97;1.15;;;;;;;1.60;100.00;99035.84;5064355;28;20343;-67
2022/02/07 06:32:15;;;;;;;5.35;1.30;;;;;;;1.63;99.66;99041.09;5064526;28;20035;-67
2022/02/07 06:34:40;;;;;;;6.88;1.67;;;;;;;1.63;99.71;99045.41;5064366;28;20388;-67
2022/02/07 06:37:07;;;;;;;2.60;0.98;;;;;;;1.63;99.30;99061.84;5064354;28;20087;-67
2022/02/07 06:39:32;;;;;;;16.73;1.80;;;;;;;1.64;99.35;99052.31;5064383;28;20025;-67
2022/02/07 06:41:58;;;;;;;4.45;1.27;;;;;;;1.67;99.09;99067.97;5064334;28;20078;-67
2022/02/07 06:44:25;;;;;;;22.15;2.35;;;;;;;1.62;99.14;99077.38;5064187;28;20063;-67
2022/02/07 06:46:50;;;;;;;6.40;1.13;;;;;;;1.59;98.97;99085.94;5064195;28;20025;-67
2022/02/07 06:49:16;;;;;;;3.78;1.00;;;;;;;1.58;99.15;99088.53;5064177;28;20040;-67
2022/02/07 06:51:42;;;;;;;11.10;1.38;;;;;;;1.58;99.20;99098.91;5064176;28;20028;-67
2022/02/07 06:54:07;;;;;;;9.40;1.38;;;;;;;1.57;99.19;99097.13;5064037;28;20044;-67
2022/02/07 06:56:33;;;;;;;9.50;1.42;;;;;;;1.60;99.24;99102.41;5064067;28;20031;-67
2022/02/07 06:58:58;;;;;;;3.22;1.40;;;;;;;1.60;99.22;99105.88;5064115;28;20029;-67
2022/02/07 07:01:23;;;;;;;6.72;1.25;;;;;;;1.61;98.84;99105.03;5064023;28;20067;-67
2022/02/07 07:03:49;;;;;;;4.50;1.20;;;;;;;1.66;98.58;99107.72;5063960;28;20024;-67
2022/02/07 07:06:15;;;;;;;9.13;2.15;;;;;;;1.75;97.81;99113.13;5063951;28;20035;-67
2022/02/07 07:08:49;;;;;;;4.35;1.50;;;;;;;1.75;97.84;99119.22;5063844;28;20131;-67
2022/02/07 07:11:19;;;;;;;3.85;1.35;;;;;;;1.77;97.93;99127.88;5063890;28;20025;-67
2022/02/07 07:13:52;;;;;;;5.75;1.27;;;;;;;1.82;97.82;99130.59;5064041;28;20047;-67
2022/02/07 07:16:38;;;;;;;9.93;1.73;;;;;;;1.80;97.83;99147.81;5063863;28;20024;-67
2022/02/07 07:19:04;;;;;;;11.48;1.67;;;;;;;1.76;97.89;99170.25;5063818;28;20024;-67
2022/02/07 07:21:31;;;;;;;11.70;1.45;;;;;;;1.77;97.82;99169.41;5063809;28;20024;-67
2022/02/07 07:23:57;;;;;;;5.47;1.30;;;;;;;1.90;97.59;99175.78;5063707;28;20033;-67
2022/02/07 07:26:25;;;;;;;3.03;1.02;;;;;;;1.95;97.73;99179.34;5065754;28;20335;-67
2022/02/07 07:28:52;;;;;;;8.82;1.77;;;;;;;1.99;97.58;99191.53;5067940;28;20084;-67
2022/02/07 07:31:19;;;;;;;6.47;1.50;;;;;;;2.12;96.69;99194.44;5067748;28;20276;-67
2022/02/07 07:33:50;;;;;;;14.95;2.10;;;;;;;2.20;96.52;99207.59;5067980;28;20194;-67
2022/02/07 07:36:15;;;;;;;17.45;2.60;;;;;;;2.30;96.15;99206.97;5067773;28;20017;-67
2022/02/07 07:38:41;;;;;;;3.28;1.35;;;;;;;2.39;95.90;99209.78;5067714;28;20035;-67
2022/02/07 07:41:06;;;;;;;10.15;1.60;;;;;;;2.47;95.96;99208.22;5067684;28;20216;-67
2022/02/07 07:43:32;;;;;;;9.32;1.02;;;;;;;2.55;95.81;99214.44;5067620;28;20339;-67
2022/02/07 07:46:04;;;;;;;2.65;1.08;;;;;;;2.59;94.14;99224.06;5067588;28;20020;-67
2022/02/07 07:48:30;;;;;;;12.93;2.67;;;;;;;2.67;94.13;99219.91;5067554;28;20021;-67
2022/02/07 08:01:43;;;;;;;8.65;1.30;;;;;;;2.71;93.66;99245.09;5067406;28;20355;-67
2022/02/07 08:04:12;;;;;;;8.25;1.90;;;;;;;2.75;93.31;99246.06;5067228;28;20013;-67
2022/02/07 08:06:48;;;;;;;4.90;1.88;;;;;;;2.80;93.82;99250.50;5067301;28;20028;-67
2022/02/07 08:09:22;;;;;;;7.13;1.88;;;;;;;3.06;92.89;99262.31;5067455;28;20028;-67
2022/02/07 08:11:47;;;;;;;6.43;1.77;;;;;;;3.28;91.67;99256.69;5067169;28;20016;-67
2022/02/07 08:14:13;;;;;;;6.68;1.80;;;;;;;3.46;91.73;99262.25;5067274;28;20066;-67
2022/02/07 08:16:38;;;;;;;7.63;1.40;;;;;;;3.51;91.40;99270.13;5067043;28;20225;-67
2022/02/07 08:19:07;;;;;;;8.55;1.95;;;;;;;3.45;89.98;99273.47;5067032;28;20316;-67
2022/02/07 08:21:36;;;;;;;8.88;1.73;;;;;;;3.43;90.52;99276.91;5066972;28;20021;-67
2022/02/07 08:24:02;;;;;;;10.52;1.80;;;;;;;3.49;89.94;99287.44;5066824;28;20055;-67
2022/02/07 08:26:28;;;;;;;9.70;1.30;;;;;;;3.62;90.80;99287.69;5066873;28;20052;-67
2022/02/07 08:28:53;;;;;;;6.90;1.33;;;;;;;3.93;89.22;99297.78;5066812;28;20078;-67
2022/02/07 08:31:20;;;;;;;12.13;1.20;;;;;;;3.88;88.88;99301.16;5066575;28;20100;-67
2022/02/07 08:33:48;;;;;;;11.98;1.33;;;;;;;3.88;89.33;99302.03;5066648;28;20033;-67
2022/02/07 08:36:16;;;;;;;7.85;1.88;;;;;;;3.74;88.88;99306.13;5066394;28;20025;-67
2022/02/07 08:38:41;;;;;;;5.38;1.33;;;;;;;3.80;88.86;99311.44;5066448;28;20031;-67
2022/02/07 08:41:07;;;;;;;11.15;1.70;;;;;;;3.85;88.34;99304.59;5066569;28;20036;-67
2022/02/07 08:43:32;;;;;;;8.10;1.27;;;;;;;3.93;88.78;99323.81;5066517;28;20041;-67
2022/02/07 08:45:57;;;;;;;4.65;1.23;;;;;;;3.96;88.79;99323.88;5066554;28;20043;-67
2022/02/07 08:48:24;;;;;;;5.07;1.15;;;;;;;3.80;88.73;99342.69;5066429;28;20048;-67
2022/02/07 08:50:52;;;;;;;15.38;1.45;;;;;;;3.68;88.60;99342.47;5066630;28;20043;-67
2022/02/07 08:53:19;;;;;;;5.05;1.48;;;;;;;3.57;89.06;99341.38;5066499;28;20395;-67
2022/02/07 08:55:50;;;;;;;12.27;2.03;;;;;;;5.16;85.55;99350.09;5066538;28;20048;-67
2022/02/07 08:58:18;;;;;;;8.73;1.83;;;;;;;6.13;80.96;99347.75;5066566;28;20017;-67
2022/02/07 09:11:10;;;;;;;12.95;1.98;;;;;;;8.28;71.83;99362.94;5066317;28;20025;-67
2022/02/07 09:13:38;;;;;;;5.35;1.52;;;;;;;8.60;70.23;99363.81;5065918;28;20028;-67
2022/02/07 09:18:40;;;;;;;17.63;1.65;;;;;;;8.75;68.86;99382.19;5066297;28;20057;-67
2022/02/07 09:21:07;;;;;;;6.22;1.23;;;;;;;8.78;68.71;99379.56;5066139;28;20021;-67
2022/02/07 09:23:37;;;;;;;8.23;1.40;;;;;;;8.62;69.71;99385.69;5065776;28;20379;-67
2022/02/07 09:26:03;;;;;;;8.13;1.75;;;;;;;8.53;70.39;99396.19;5065748;28;20025;-67
2022/02/07 09:28:30;;;;;;;8.30;1.58;;;;;;;8.61;69.26;99383.94;5065703;28;20025;-67
2022/02/07 09:30:55;;;;;;;12.75;1.85;;;;;;;8.07;69.96;99394.31;5065455;28;20226;-67
2022/02/07 09:33:21;;;;;;;8.30;1.63;;;;;;;8.30;70.67;99392.66;5065498;28;20070;-67
2022/02/07 09:35:51;;;;;;;7.95;1.95;;;;;;;8.65;70.13;99396.19;5065548;28;20025;-67
2022/02/07 09:38:19;;;;;;;6.55;1.35;;;;;;;9.13;68.03;99395.28;5065555;28;20021;-67
2022/02/07 09:40:50;;;;;;;10.25;1.63;;;;;;;9.41;66.87;99393.47;5065447;28;20251;-67
2022/02/07 09:43:17;;;;;;;10.57;1.77;;;;;;;9.54;66.96;99393.44;5065405;28;20020;-67
2022/02/07 09:45:44;;;;;;;8.40;1.38;;;;;;;9.46;66.02;99396.97;5065386;28;20263;-67
2022/02/07 09:48:10;;;;;;;10.73;1.67;;;;;;;9.24;67.02;99397.91;5064632;28;20021;-67
2022/02/07 09:50:38;;;;;;;10.25;2.28;;;;;;;9.04;67.82;99400.53;5065036;28;20024;-67
2022/02/07 09:53:05;;;;;;;7.60;1.70;;;;;;;9.13;68.50;99415.41;5065481;28;20025;-67
2022/02/07 09:55:31;;;;;;;6.60;1.30;;;;;;;9.21;68.82;99424.16;5065169;28;20032;-67
2022/02/07 09:57:57;;;;;;;7.78;1.20;;;;;;;9.15;69.12;99429.41;5065198;28;20027;-67
2022/02/07 10:00:32;;;;;;;8.50;1.85;;;;;;;9.02;68.46;99435.56;5065105;28;20021;-68
2022/02/07 10:08:23;;;;;;;11.35;1.85;;;;;;;8.27;70.15;99445.13;5065242;28;20058;-68
2022/02/07 10:11:09;;;;;;;5.20;1.42;;;;;;;8.30;71.76;99460.88;5064936;28;20021;-68
2022/02/07 10:19:10;;;;;;;13.07;1.83;;;;;;;7.23;74.33;99466.38;5065112;28;20029;-68
2022/02/07 10:35:44;;;;;;;12.48;1.63;;;;;;;7.29;75.17;99524.94;5064410;28;20347;-68
2022/02/07 10:38:19;;;;;;;8.70;1.80;;;;;;;7.16;76.34;99520.47;5064231;28;20029;-68
2022/02/07 10:46:17;;;;;;;7.80;1.60;;;;;;;6.92;77.59;99528.09;5064588;28;20096;-68
2022/02/07 10:48:52;;;;;;;3.95;0.95;;;;;;;7.01;76.86;99533.41;5064235;28;20027;-68
2022/02/07 10:51:32;;;;;;;11.38;1.42;;;;;;;6.99;77.25;99545.59;5064209;28;20024;-68
2022/02/07 10:54:07;;;;;;;10.63;1.67;;;;;;;7.03;77.23;99552.63;5064338;28;20309;-68
2022/02/07 10:56:41;;;;;;;5.50;1.05;;;;;;;6.98;77.70;99556.94;5064154;28;20144;-68
2022/02/07 10:59:09;;;;;;;9.90;1.45;;;;;;;6.95;77.06;99563.88;5064031;28;20025;-68
2022/02/07 11:04:17;;;;;;;11.55;1.48;;;;;;;6.87;78.47;99584.75;5064347;28;20088;-68
2022/02/07 11:06:47;;;;;;;4.95;1.10;;;;;;;6.80;77.42;99602.97;5063980;28;20048;-68
2022/02/07 11:09:38;;;;;;;7.60;1.50;;;;;;;6.68;76.93;99600.22;5064166;28;20311;-68
2022/02/07 11:27:43;;;;;;;6.35;1.60;;;;;;;6.51;79.28;99623.56;5063771;28;20212;-68
2022/02/07 11:30:16;;;;;;;10.82;1.55;;;;;;;6.53;79.74;99616.63;5063512;28;20056;-68
2022/02/07 11:32:42;;;;;;;10.15;1.40;;;;;;;6.63;79.65;99621.09;5063721;28;20233;-68
2022/02/07 11:35:30;;;;;;;8.18;1.25;;;;;;;6.56;78.54;99632.34;5063570;28;20021;-68
2022/02/07 11:38:01;;;;;;;7.03;1.10;;;;;;;6.45;78.94;99649.63;5063689;28;20255;-68
2022/02/07 11:40:30;;;;;;;9.57;1.48;;;;;;;6.38;80.25;99653.03;5063601;28;20059;-68
2022/02/07 11:43:08;;;;;;;14.77;2.10;;;;;;;6.37;79.60;99661.75;5063560;28;20213;-68
2022/02/07 11:45:55;;;;;;;15.38;1.90;;;;;;;6.33;81.58;99666.03;5063593;28;20085;-68
2022/02/07 11:48:31;;;;;;;4.22;1.17;;;;;;;6.29;80.92;99679.03;5063552;28;20028;-68
2022/02/07 11:51:00;;;;;;;13.50;2.00;;;;;;;6.29;79.83;99679.94;5063876;28;20020;-68
2022/02/07 11:53:41;;;;;;;13.32;1.52;;;;;;;6.26;79.43;99679.88;5063713;28;20041;-68
2022/02/07 11:56:33;;;;;;;5.30;1.15;;;;;;;6.18;80.17;99680.63;5063761;28;20048;-68
2022/02/07 11:59:01;;;;;;;12.30;1.55;;;;;;;6.14;80.12;99678.84;5055628;28;20033;-68
2022/02/07 12:02:07;;;;;;;15.18;2.22;;;;;;;6.14;78.63;99684.06;5063467;28;20025;-68
2022/02/07 12:04:43;;;;;;;3.15;1.20;;;;;;;6.06;79.55;99693.50;5063638;28;20232;-68
2022/02/07 12:07:15;;;;;;;17.90;1.45;;;;;;;5.96;80.16;99704.69;5063412;28;20374;-68
2022/02/07 12:09:59;;;;;;;17.80;2.25;;;;;;;5.95;81.13;99708.16;5063365;28;20057;-68
2022/02/07 12:12:37;;;;;;;9.45;1.65;;;;;;;5.98;80.48;99697.75;5064978;28;20320;-68
2022/02/07 12:15:14;;;;;;;7.38;1.52;;;;;;;5.92;80.74;99702.88;5067034;28;20021;-68
2022/02/07 12:17:42;;;;;;;10.23;1.60;;;;;;;5.92;81.53;99711.59;5067024;28;20025;-68
2022/02/07 12:20:10;;;;;;;14.68;1.38;;;;;;;5.94;82.00;99707.28;5067011;28;20340;-68
2022/02/07 12:22:54;;;;;;;15.82;2.05;;;;;;;5.92;82.36;99713.34;5066929;28;20032;-68
2022/02/07 12:25:59;;;;;;;11.85;2.42;;;;;;;6.00;80.82;99715.22;5066900;28;20224;-68
2022/02/07 12:28:33;;;;;;;9.00;1.77;;;;;;;6.06;81.42;99711.81;5066435;28;20055;-68
2022/02/07 12:33:31;;;;;;;9.88;1.75;;;;;;;6.04;80.31;99700.44;5066707;28;20325;-68
2022/02/07 12:36:00;;;;;;;9.50;1.80;;;;;;;6.05;81.23;99704.84;5067012;28;20017;-68
2022/02/07 12:38:30;;;;;;;13.60;1.85;;;;;;;6.15;79.50;99714.56;5066686;28;20017;-68
2022/02/07 12:40:56;;;;;;;16.77;1.67;;;;;;;6.14;81.03;99716.28;5066866;28;20095;-68
2022/02/07 12:43:23;;;;;;;13.35;2.13;;;;;;;6.11;80.82;99715.38;5066541;28;20027;-68
2022/02/07 12:45:49;;;;;;;7.35;1.48;;;;;;;6.12;80.01;99711.91;5066535;28;20024;-68
2022/02/07 12:48:19;;;;;;;6.80;1.25;;;;;;;6.17;80.23;99710.25;5066466;28;20028;-68
2022/02/07 12:50:51;;;;;;;9.40;2.25;;;;;;;6.22;80.68;99713.81;5066641;28;20021;-68
2022/02/07 12:53:17;;;;;;;11.20;1.42;;;;;;;6.19;80.46;99713.75;5066346;28;20025;-68
2022/02/07 12:55:47;;;;;;;10.07;1.42;;;;;;;6.09;80.45;99711.84;5066347;28;20029;-68
2022/02/07 12:58:13;;;;;;;12.90;1.40;;;;;;;6.19;81.28;99718.97;5066324;28;20054;-68
2022/02/07 13:00:39;;;;;;;9.80;1.63;;;;;;;6.22;80.84;99713.81;5066306;28;20021;-68
2022/02/07 13:03:04;;;;;;;7.72;1.70;;;;;;;6.24;81.00;99717.31;5066234;28;20063;-68
2022/02/07 13:05:30;;;;;;;12.40;2.05;;;;;;;6.24;81.43;99717.31;5066266;28;20021;-68
2022/02/07 13:07:57;;;;;;;13.55;1.73;;;;;;;6.41;79.30;99721.06;5066058;28;20339;-68
2022/02/07 13:10:23;;;;;;;9.98;2.08;;;;;;;6.43;80.04;99708.91;5066311;28;20025;-68
2022/02/07 13:15:22;;;;;;;11.95;1.50;;;;;;;6.38;79.95;99715.78;5066204;28;20025;-68
2022/02/07 13:17:51;;;;;;;9.27;1.55;;;;;;;6.49;80.19;99724.66;5065928;28;20031;-68
2022/02/07 13:20:19;;;;;;;6.30;1.30;;;;;;;6.41;81.39;99731.50;5065831;28;20029;-68
2022/02/07 13:22:45;;;;;;;9.77;1.88;;;;;;;6.43;80.21;99740.28;5065391;28;20056;-68
2022/02/07 13:25:11;;;;;;;3.85;1.00;;;;;;;6.42;81.02;99728.03;5064974;28;20313;-68
2022/02/07 13:27:38;;;;;;;6.10;1.70;;;;;;;6.45;80.49;99730.69;5065772;28;20025;-68
2022/02/07 13:30:08;;;;;;;14.63;1.83;;;;;;;6.40;80.12;99725.41;5065495;28;20056;-68
2022/02/07 13:32:34;;;;;;;12.07;2.58;;;;;;;6.38;81.12;99726.25;5065611;28;20260;-68
2022/02/07 13:35:13;;;;;;;12.18;1.83;;;;;;;6.40;81.80;99729.78;5065595;28;20040;-68
2022/02/07 13:37:41;;;;;;;5.35;1.75;;;;;;;6.45;81.24;99733.31;5065540;28;20221;-68
2022/02/07 13:40:17;;;;;;;12.02;1.70;;;;;;;6.50;80.29;99736.88;5065471;28;20092;-68
2022/02/07 13:42:47;;;;;;;19.70;1.63;;;;;;;6.46;81.54;99729.84;5065473;28;20368;-68
2022/02/07 13:45:23;;;;;;;15.10;2.45;;;;;;;6.50;81.06;99732.53;5065423;28;20024;-68
2022/02/07 13:47:55;;;;;;;7.75;1.88;;;;;;;6.55;80.98;99740.41;5065385;28;20035;-68
2022/02/07 13:50:25;;;;;;;8.05;1.70;;;;;;;6.62;81.36;99744.91;5065341;28;20025;-68
2022/02/07 13:52:53;;;;;;;7.72;1.50;;;;;;;6.60;81.86;99747.50;5065536;28;20208;-68
2022/02/07 13:55:21;;;;;;;14.77;2.30;;;;;;;6.69;80.02;99751.97;5065134;28;20096;-68
2022/02/07 13:57:48;;;;;;;16.95;1.80;;;;;;;6.67;79.02;99745.84;5065165;28;20035;-68
2022/02/07 14:00:15;;;;;;;10.02;1.27;;;;;;;6.73;79.41;99751.16;5065150;28;20024;-68
2022/02/07 14:02:43;;;;;;;18.42;1.77;;;;;;;6.77;79.17;99744.22;5065137;28;20084;-68
2022/02/07 14:05:09;;;;;;;10.50;1.75;;;;;;;6.76;79.84;99745.97;5065034;28;20135;-68
2022/02/07 14:07:52;;;;;;;9.68;1.67;;;;;;;6.83;80.07;99742.56;5065031;28;20248;-68
2022/02/07 14:10:20;;;;;;;19.27;1.67;;;;;;;6.81;79.74;99735.56;5065181;28;20312;-68
2022/02/07 14:12:45;;;;;;;7.93;1.65;;;;;;;6.64;80.58;99751.03;5065128;28;20025;-68
2022/02/07 14:15:11;;;;;;;15.10;1.70;;;;;;;6.75;80.50;99745.94;5064742;28;20357;-68
2022/02/07 14:17:43;;;;;;;6.30;1.20;;;;;;;6.82;78.31;99756.50;5064787;28;20092;-68
2022/02/07 14:20:10;;;;;;;11.73;1.48;;;;;;;6.86;78.48;99745.22;5065045;28;20024;-68
2022/02/07 14:22:36;;;;;;;10.32;2.38;;;;;;;6.88;76.54;99750.47;5064663;28;20044;-68
2022/02/07 14:25:03;;;;;;;2.45;1.05;;;;;;;6.83;75.56;99753.03;5064664;28;20025;-68
2022/02/07 14:27:29;;;;;;;6.07;1.80;;;;;;;6.84;75.87;99760.03;5064708;28;20024;-68
2022/02/07 14:29:56;;;;;;;3.97;1.33;;;;;;;6.86;76.05;99760.06;5064616;28;20213;-68
2022/02/07 14:32:21;;;;;;;6.07;1.13;;;;;;;6.85;74.47;99761.78;5064742;28;20332;-68